Time;durP1;ratioP1;P1;durP2;ratioP2;P2;SDS_P1;SDS_P2;PMS_P1;PMS_P2;Temp;Humidity;BMP_temperature;BMP_pressure;BME280_temperature;BME280_humidity;BME280_pressure;Samples;Min_cycle;Max_cycle;Signal;HPM_P1;HPM_P2
2021/10/17 00:02:10;;;;;;;;;;;;;;;-144.99;74.73;52466.44;5091966;28;19997;-66
2021/10/17 00:04:37;;;;;;;;;;;;;;;-144.99;75.14;52472.56;5092324;28;19987;-66
2021/10/17 00:07:03;;;;;;;;;;;;;;;-144.99;74.79;52497.00;5091876;28;20449;-66
2021/10/17 00:09:30;;;;;;;;;;;;;;;-144.99;74.93;52488.84;5092513;28;19931;-66
2021/10/17 00:11:57;;;;;;;;;;;;;;;-144.99;74.64;52480.72;5089344;28;20218;-66
2021/10/17 00:14:24;;;;;;;;;;;;;;;-144.99;74.64;52521.47;5080193;28;19977;-66
2021/10/17 00:16:50;;;;;;;;;;;;;;;-144.99;74.58;52460.31;5086432;28;20269;-65
2021/10/17 00:19:16;;;;;;;;;;;;;;;-144.99;74.73;52452.16;5092020;28;19984;-68
2021/10/17 00:21:43;;;;;;;;;;;;;;;-144.99;74.82;52452.16;5092460;28;20532;-66
2021/10/17 00:24:09;;;;;;;;;;;;;;;-144.99;74.76;52464.41;5092386;28;20113;-66
2021/10/17 00:26:36;;;;;;;;;;;;;;;-144.99;74.55;52501.09;5091335;28;19999;-66
2021/10/17 00:29:03;;;;;;;;;;;;;;;-144.99;74.30;52431.78;5078978;28;19984;-66
2021/10/17 00:31:30;;;;;;;;;;;;;;;-144.99;74.25;52503.13;5092432;28;19987;-66
2021/10/17 00:33:56;;;;;;;;;;;;;;;-144.99;74.29;52476.63;5091793;28;20426;-66
2021/10/17 00:36:22;;;;;;;;;;;;;;;-144.99;74.08;52456.25;5091361;28;19988;-66
2021/10/17 00:38:49;;;;;;;;;;;;;;;-144.99;74.39;52448.09;5091189;28;19987;-66
2021/10/17 00:41:16;;;;;;;;;;;;;;;-144.99;74.34;52448.09;5091450;28;20372;-66
2021/10/17 00:43:42;;;;;;;;;;;;;;;-144.99;74.11;52452.16;5088545;28;19979;-65
2021/10/17 00:46:16;;;;;;;;;;;;;;;-144.99;74.14;52439.94;5090581;28;19972;-66
2021/10/17 00:48:43;;;;;;;;;;;;;;;-144.99;74.07;52464.41;5102557;28;19968;-66
2021/10/17 00:51:09;;;;;;;;;;;;;;;-144.99;74.03;52448.09;5099995;28;19947;-65
2021/10/17 00:53:36;;;;;;;;;;;;;;;-144.99;74.23;52456.25;5108279;28;20002;-66
2021/10/17 00:56:02;;;;;;;;;;;;;;;-144.99;74.31;52456.25;5095037;28;19985;-65
2021/10/17 00:58:29;;;;;;;;;;;;;;;-144.99;74.48;52484.78;5092107;28;20007;-66
2021/10/17 01:00:55;;;;;;;;;;;;;;;-144.99;74.48;52460.31;5092060;28;19992;-66
2021/10/17 01:03:23;;;;;;;;;;;;;;;-144.99;74.66;52435.88;5091490;28;19997;-66
2021/10/17 01:05:50;;;;;;;;;;;;;;;-144.99;74.57;52488.84;5090821;28;20133;-66
2021/10/17 01:08:17;;;;;;;;;;;;;;;-144.99;74.64;52437.91;5091466;28;19995;-66
2021/10/17 01:10:43;;;;;;;;;;;;;;;-144.99;74.56;52486.81;5088002;28;19980;-65
2021/10/17 01:13:14;;;;;;;;;;;;;;;-144.99;74.94;52488.84;5088634;28;19993;-66
2021/10/17 01:15:40;;;;;;;;;;;;;;;-144.99;74.78;52484.78;5081359;28;20236;-65
2021/10/17 01:18:07;;;;;;;;;;;;;;;-144.99;75.38;52486.81;5080398;28;20007;-66
2021/10/17 01:20:34;;;;;;;;;;;;;;;-144.99;75.10;52464.41;5090462;28;20063;-65
2021/10/17 01:23:01;;;;;;;;;;;;;;;-144.99;75.05;52439.94;5091775;28;19996;-66
2021/10/17 01:25:28;;;;;;;;;;;;;;;-144.99;75.05;52441.97;5090923;28;19985;-66
2021/10/17 01:27:54;;;;;;;;;;;;;;;-144.99;75.22;52456.25;5090448;28;20475;-66
2021/10/17 01:30:20;;;;;;;;;;;;;;;-144.99;75.31;52488.84;5091305;28;20337;-65
2021/10/17 01:32:47;;;;;;;;;;;;;;;-144.99;75.19;52458.28;5090972;28;20044;-66
2021/10/17 01:35:13;;;;;;;;;;;;;;;-144.99;75.70;52468.47;5090562;28;19977;-65
2021/10/17 01:37:41;;;;;;;;;;;;;;;-144.99;75.70;52476.63;5091060;28;19988;-66
2021/10/17 01:40:08;;;;;;;;;;;;;;;-144.99;75.88;52474.59;5090880;28;19981;-66
2021/10/17 01:42:34;;;;;;;;;;;;;;;-144.99;76.09;52492.94;5087885;28;20007;-65
2021/10/17 01:45:00;;;;;;;;;;;;;;;-144.99;76.25;52448.09;5087503;28;19973;-66
2021/10/17 01:47:27;;;;;;;;;;;;;;;-144.99;76.77;52476.63;5090212;28;20325;-66
2021/10/17 01:49:53;;;;;;;;;;;;;;;-144.99;77.33;52497.00;5090535;28;20024;-65
2021/10/17 01:52:19;;;;;;;;;;;;;;;-144.99;77.19;52470.50;5090464;28;20100;-66
2021/10/17 01:54:47;;;;;;;;;;;;;;;-144.99;77.65;52435.88;5090231;28;19985;-66
2021/10/17 01:57:13;;;;;;;;;;;;;;;-144.99;77.64;52513.31;5089902;28;19981;-66
2021/10/17 01:59:40;;;;;;;;;;;;;;;-144.99;77.89;52452.16;5090553;28;20436;-66
2021/10/17 02:02:06;;;;;;;;;;;;;;;-144.99;78.05;52480.72;5090837;28;20345;-65
2021/10/17 02:04:33;;;;;;;;;;;;;;;-144.99;78.34;52462.34;5090421;28;19980;-66
2021/10/17 02:06:59;;;;;;;;;;;;;;;-144.99;78.41;52476.63;5090407;28;19988;-67
2021/10/17 02:09:26;;;;;;;;;;;;;;;-144.99;78.29;52468.47;5090390;28;19952;-66
2021/10/17 02:11:53;;;;;;;;;;;;;;;-144.99;78.47;52484.78;5089955;28;19996;-68
2021/10/17 02:14:20;;;;;;;;;;;;;;;-144.99;78.76;52472.56;5088930;28;19977;-66
2021/10/17 02:16:46;;;;;;;;;;;;;;;-144.99;78.73;52480.72;5084890;28;19979;-66
2021/10/17 02:19:13;;;;;;;;;;;;;;;-144.99;78.70;52492.94;5090424;28;19980;-66
2021/10/17 02:21:39;;;;;;;;;;;;;;;-144.99;78.80;52476.63;5090063;28;20000;-66
2021/10/17 02:24:10;;;;;;;;;;;;;;;-144.99;79.08;52505.16;5084466;28;20040;-66
2021/10/17 02:26:37;;;;;;;;;;;;;;;-144.99;79.43;52476.63;5083068;28;20340;-65
2021/10/17 02:29:04;;;;;;;;;;;;;;;-144.99;79.37;52431.78;5090579;28;19980;-65
2021/10/17 02:31:31;;;;;;;;;;;;;;;-144.99;79.38;52456.25;5090170;28;20400;-66
2021/10/17 02:33:57;;;;;;;;;;;;;;;-144.99;79.42;52439.94;5090056;28;19988;-66
2021/10/17 02:36:23;;;;;;;;;;;;;;;-144.99;79.85;52480.72;5089766;28;20012;-66
2021/10/17 02:38:50;;;;;;;;;;;;;;;-144.99;80.17;52501.09;5089948;28;20547;-66
2021/10/17 02:41:16;;;;;;;;;;;;;;;-144.99;80.65;52452.16;5089620;28;20001;-66
2021/10/17 02:43:43;;;;;;;;;;;;;;;-144.99;80.52;52460.31;5089925;28;19975;-66
2021/10/17 02:46:10;;;;;;;;;;;;;;;-144.99;80.40;52448.09;5085620;28;19973;-66
2021/10/17 02:48:37;;;;;;;;;;;;;;;-144.99;80.78;52407.31;5089190;28;19980;-66
2021/10/17 02:51:03;;;;;;;;;;;;;;;-144.99;81.10;52480.72;5090167;28;19981;-66
2021/10/17 02:53:30;;;;;;;;;;;;;;;-144.99;81.38;52444.03;5089996;28;20004;-66
2021/10/17 02:55:56;;;;;;;;;;;;;;;-144.99;81.68;52476.63;5090605;28;20066;-66
2021/10/17 02:58:22;;;;;;;;;;;;;;;-144.99;82.51;52452.16;5090282;28;19981;-66
2021/10/17 03:00:49;;;;;;;;;;;;;;;-144.99;82.39;52484.78;5093780;28;19987;-65
2021/10/17 03:03:16;;;;;;;;;;;;;;;-144.99;82.44;52505.16;5093330;28;20000;-66
2021/10/17 03:05:43;;;;;;;;;;;;;;;-144.99;82.94;52427.72;5093705;28;19981;-67
2021/10/17 03:08:09;;;;;;;;;;;;;;;-144.99;83.25;52444.03;5092244;28;19996;-67
2021/10/17 03:10:35;;;;;;;;;;;;;;;-144.99;83.11;52452.16;5106821;28;19980;-67
2021/10/17 03:13:02;;;;;;;;;;;;;;;-144.99;83.57;52456.25;5102568;28;19992;-67
2021/10/17 03:15:28;;;;;;;;;;;;;;;-144.99;83.78;52423.63;5095112;28;20390;-67
2021/10/17 03:17:54;;;;;;;;;;;;;;;-144.99;84.09;52464.41;5086751;28;20380;-67
2021/10/17 03:20:22;;;;;;;;;;;;;;;-144.99;84.34;52464.41;5090991;28;19977;-67
2021/10/17 03:22:49;;;;;;;;;;;;;;;-144.99;84.24;52464.41;5093516;28;20449;-67
2021/10/17 03:25:15;;;;;;;;;;;;;;;-144.99;84.24;52507.19;5093583;28;19981;-67
2021/10/17 03:27:41;;;;;;;;;;;;;;;-144.99;84.42;52472.56;5093349;28;19987;-67
2021/10/17 03:30:08;;;;;;;;;;;;;;;-144.99;84.58;52433.81;5093876;28;20356;-67
2021/10/17 03:32:37;;;;;;;;;;;;;;;-144.99;84.45;52456.25;5094165;28;20003;-67
2021/10/17 03:35:04;;;;;;;;;;;;;;;-144.99;84.71;52484.78;5090775;28;19987;-67
2021/10/17 03:37:32;;;;;;;;;;;;;;;-144.99;84.88;52472.56;5073381;28;19981;-67
2021/10/17 03:39:59;;;;;;;;;;;;;;;-144.99;85.10;52448.09;5076401;28;19985;-67
2021/10/17 03:42:25;;;;;;;;;;;;;;;-144.99;85.31;52444.03;5092939;28;20000;-67
2021/10/17 03:44:52;;;;;;;;;;;;;;;-144.99;85.55;52464.41;5089144;28;19976;-67
2021/10/17 03:47:19;;;;;;;;;;;;;;;-144.99;85.70;52472.56;5086958;28;19981;-67
2021/10/17 03:49:45;;;;;;;;;;;;;;;-144.99;86.10;52472.56;5093054;28;20449;-67
2021/10/17 03:52:11;;;;;;;;;;;;;;;-144.99;86.60;52472.56;5093078;28;20003;-67
2021/10/17 03:54:41;;;;;;;;;;;;;;;-144.99;87.13;52464.41;5090435;28;20033;-67
2021/10/17 03:57:07;;;;;;;;;;;;;;;-144.99;87.88;52464.41;5082240;28;19987;-67
2021/10/17 03:59:33;;;;;;;;;;;;;;;-144.99;87.56;52460.31;5093038;28;19963;-67
2021/10/17 04:02:00;;;;;;;;;;;;;;;-144.99;87.63;52452.16;5092637;28;19996;-67
2021/10/17 04:04:26;;;;;;;;;;;;;;;-144.99;87.27;52429.75;5092642;28;19980;-67
2021/10/17 04:06:52;;;;;;;;;;;;;;;-144.99;87.82;52484.78;5092548;28;19928;-67
2021/10/17 04:09:19;;;;;;;;;;;;;;;-144.99;87.95;52464.41;5092759;28;19984;-67
2021/10/17 04:11:47;;;;;;;;;;;;;;;-144.99;87.76;52456.25;5089804;28;20019;-67
2021/10/17 04:14:13;;;;;;;;;;;;;;;-144.99;88.38;52472.56;5084850;28;19976;-67
2021/10/17 04:16:40;;;;;;;;;;;;;;;-144.99;88.61;52464.41;5083377;28;20009;-67
2021/10/17 04:19:06;;;;;;;;;;;;;;;-144.99;88.58;52464.41;5093238;28;19981;-67
2021/10/17 04:21:32;;;;;;;;;;;;;;;-144.99;88.37;52474.59;5092134;28;20276;-67
2021/10/17 04:23:59;;;;;;;;;;;;;;;-144.99;88.39;52488.84;5092178;28;19992;-67
2021/10/17 04:26:25;;;;;;;;;;;;;;;-144.99;88.77;52492.94;5091800;28;19988;-67
2021/10/17 04:28:53;;;;;;;;;;;;;;;-144.99;88.88;52427.72;5078792;28;20473;-67
2021/10/17 04:31:19;;;;;;;;;;;;;;;-144.99;88.95;52458.28;5092321;28;19991;-67
2021/10/17 04:33:46;;;;;;;;;;;;;;;-144.99;89.67;52448.09;5092273;28;19980;-67
2021/10/17 04:36:12;;;;;;;;;;;;;;;-144.99;89.82;52431.78;5091818;28;19976;-67
2021/10/17 04:38:39;;;;;;;;;;;;;;;-144.99;89.97;52484.78;5092369;28;20457;-67
2021/10/17 04:41:05;;;;;;;;;;;;;;;-144.99;90.03;52456.25;5091948;28;20226;-67
2021/10/17 04:43:31;;;;;;;;;;;;;;;-144.99;90.31;52427.72;5091074;28;19992;-67
2021/10/17 04:46:00;;;;;;;;;;;;;;;-144.99;90.03;52476.63;5089135;28;19973;-67
2021/10/17 04:48:26;;;;;;;;;;;;;;;-144.99;90.18;52456.25;5089790;28;20466;-67
2021/10/17 04:50:53;;;;;;;;;;;;;;;-144.99;90.11;52456.25;5092169;28;19980;-67
2021/10/17 04:53:19;;;;;;;;;;;;;;;-144.99;90.25;52456.25;5091830;28;20000;-67
2021/10/17 04:55:46;;;;;;;;;;;;;;;-144.99;90.56;52470.50;5091888;28;19980;-67
2021/10/17 04:58:12;;;;;;;;;;;;;;;-144.99;90.69;52448.09;5092027;28;20071;-67
2021/10/17 05:00:38;;;;;;;;;;;;;;;-144.99;90.56;52466.44;5091547;28;20540;-67
2021/10/17 05:03:06;;;;;;;;;;;;;;;-144.99;90.71;52452.16;5091383;28;19977;-67
2021/10/17 05:05:32;;;;;;;;;;;;;;;-144.99;90.44;52448.09;5091810;28;19980;-67
2021/10/17 05:07:59;;;;;;;;;;;;;;;-144.99;90.60;52437.91;5090774;28;19993;-67
2021/10/17 05:10:25;;;;;;;;;;;;;;;-144.99;90.65;52452.16;5089768;28;20383;-67
2021/10/17 05:12:51;;;;;;;;;;;;;;;-144.99;90.67;52439.94;5103862;22;20040;-70
2021/10/17 05:15:18;;;;;;;;;;;;;;;-144.99;90.54;52468.47;5083315;28;19973;-70
2021/10/17 05:17:44;;;;;;;;;;;;;;;-144.99;90.21;52460.31;5084925;28;20363;-70
2021/10/17 05:20:12;;;;;;;;;;;;;;;-144.99;90.40;52448.09;5090686;28;20464;-70
2021/10/17 05:22:39;;;;;;;;;;;;;;;-144.99;90.56;52419.56;5089073;28;20158;-71
2021/10/17 05:25:05;;;;;;;;;;;;;;;-144.99;90.62;52450.13;5090762;28;20329;-70
2021/10/17 05:27:32;;;;;;;;;;;;;;;-144.99;90.50;52444.03;5090826;28;19988;-70
2021/10/17 05:29:58;;;;;;;;;;;;;;;-144.99;90.52;52423.63;5091107;28;19987;-69
2021/10/17 05:32:24;;;;;;;;;;;;;;;-144.99;90.26;52478.66;5091330;28;20048;-69
2021/10/17 05:34:51;;;;;;;;;;;;;;;-144.99;90.06;52476.63;5092324;28;19985;-69
2021/10/17 05:37:18;;;;;;;;;;;;;;;-144.99;90.14;52468.47;5091160;28;19980;-69
2021/10/17 05:39:45;;;;;;;;;;;;;;;-144.99;90.12;52484.78;5090199;28;20419;-69
2021/10/17 05:42:11;;;;;;;;;;;;;;;-144.99;90.11;52476.63;5090306;28;20445;-69
2021/10/17 05:44:37;;;;;;;;;;;;;;;-144.99;90.07;52460.31;5090193;28;19972;-69
2021/10/17 05:47:04;;;;;;;;;;;;;;;-144.99;90.00;52439.94;5090499;28;19994;-69
2021/10/17 05:49:30;;;;;;;;;;;;;;;-144.99;90.01;52474.59;5091007;28;19980;-70
2021/10/17 05:51:57;;;;;;;;;;;;;;;-144.99;90.19;52452.16;5090318;28;20007;-69
2021/10/17 05:54:24;;;;;;;;;;;;;;;-144.99;90.14;52441.97;5090023;28;20467;-70
2021/10/17 05:56:51;;;;;;;;;;;;;;;-144.99;90.11;52452.16;5089621;28;19991;-71
2021/10/17 05:59:17;;;;;;;;;;;;;;;-144.99;89.86;52456.25;5089665;28;19984;-70
2021/10/17 06:01:44;;;;;;;;;;;;;;;-144.99;90.05;52423.63;5089337;28;20046;-70
2021/10/17 06:04:11;;;;;;;;;;;;;;;-144.99;90.21;52456.25;5089903;28;19997;-70
2021/10/17 06:06:40;;;;;;;;;;;;;;;-144.99;90.46;52419.56;5090001;28;19981;-67
2021/10/17 06:09:06;;;;;;;;;;;;;;;-144.99;90.60;52448.09;5090920;28;19980;-68
2021/10/17 06:11:34;;;;;;;;;;;;;;;-144.99;90.85;52484.78;5089946;28;20024;-69
2021/10/17 06:14:00;;;;;;;;;;;;;;;-144.99;91.30;52484.78;5089800;28;20119;-69
2021/10/17 06:16:27;;;;;;;;;;;;;;;-144.99;91.67;52460.31;5091932;28;19957;-70
2021/10/17 06:18:53;;;;;;;;;;;;;;;-144.99;91.59;52460.31;5091858;28;19977;-69
2021/10/17 06:21:19;;;;;;;;;;;;;;;-144.99;91.81;52476.63;5091897;28;19987;-70
2021/10/17 06:23:46;;;;;;;;;;;;;;;-144.99;91.53;52462.34;5091030;28;20015;-70
2021/10/17 06:26:12;;;;;;;;;;;;;;;-144.99;91.95;52423.63;5091053;28;20164;-70
2021/10/17 06:28:40;;;;;;;;;;;;;;;-144.99;92.10;52444.03;5090544;28;20433;-70
2021/10/17 06:31:06;;;;;;;;;;;;;;;-144.99;91.86;52460.31;5091747;28;19987;-70
2021/10/17 06:33:33;;;;;;;;;;;;;;;-144.99;91.78;52466.44;5091969;28;20001;-70
2021/10/17 06:35:59;;;;;;;;;;;;;;;-144.99;92.11;52435.88;5093691;28;20044;-70
2021/10/17 06:38:25;;;;;;;;;;;;;;;-144.99;91.91;52431.78;5093649;28;20003;-69
2021/10/17 06:40:52;;;;;;;;;;;;;;;-144.99;92.61;52466.44;5093829;28;19977;-70
2021/10/17 06:43:18;;;;;;;;;;;;;;;-144.99;92.50;52452.16;5094969;28;20637;-70
2021/10/17 06:45:46;;;;;;;;;;;;;;;-144.99;92.73;52488.84;5095928;28;19972;-70
2021/10/17 06:48:12;;;;;;;;;;;;;;;-144.99;92.53;52501.09;5094895;28;19990;-70
2021/10/17 06:50:39;;;;;;;;;;;;;;;-144.99;92.29;52427.72;5094771;28;19980;-70
2021/10/17 06:53:05;;;;;;;;;;;;;;;-144.99;91.95;52439.94;5099116;28;20456;-69
2021/10/17 06:55:31;;;;;;;;;;;;;;;-144.99;91.50;52427.72;5096810;28;19988;-70
2021/10/17 06:57:58;;;;;;;;;;;;;;;-144.99;91.49;52456.25;5092711;28;19991;-70
2021/10/17 07:00:24;;;;;;;;;;;;;;;-144.99;92.17;52464.41;5093684;28;19981;-70
2021/10/17 07:02:52;;;;;;;;;;;;;;;-144.99;91.94;52439.94;5093371;28;20007;-70
2021/10/17 07:05:18;;;;;;;;;;;;;;;-144.99;91.74;52466.44;5093015;28;19988;-70
2021/10/17 07:07:45;;;;;;;;;;;;;;;-144.99;91.76;52431.78;5092582;28;19981;-70
2021/10/17 07:10:11;;;;;;;;;;;;;;;-144.99;91.93;52415.47;5093467;28;19984;-71
2021/10/17 07:12:38;;;;;;;;;;;;;;;-144.99;91.81;52452.16;5089902;28;19993;-70
2021/10/17 07:15:04;;;;;;;;;;;;;;;-144.99;91.94;52488.84;5092905;28;19970;-70
2021/10/17 07:17:31;;;;;;;;;;;;;;;-144.99;92.07;52427.72;5093085;28;19973;-71
2021/10/17 07:19:58;;;;;;;;;;;;;;;-144.99;92.25;52439.94;5092762;28;19977;-71
2021/10/17 07:22:25;;;;;;;;;;;;;;;-144.99;92.45;52484.78;5092811;28;20003;-71
2021/10/17 07:24:51;;;;;;;;;;;;;;;-144.99;92.87;52456.25;5092924;28;19988;-71
2021/10/17 07:27:18;;;;;;;;;;;;;;;-144.99;93.27;52452.16;5092549;28;20437;-70
2021/10/17 07:29:45;;;;;;;;;;;;;;;-144.99;93.21;52431.78;5092513;28;19982;-70
2021/10/17 07:32:11;;;;;;;;;;;;;;;-144.99;92.97;52435.88;5093151;28;19996;-70
2021/10/17 07:34:38;;;;;;;;;;;;;;;-144.99;92.96;52431.78;5091929;28;19980;-71
2021/10/17 07:37:06;;;;;;;;;;;;;;;-144.99;92.96;52452.16;5092345;28;19980;-70
2021/10/17 07:39:32;;;;;;;;;;;;;;;-144.99;92.91;52431.78;5092758;28;20034;-71
2021/10/17 07:41:59;;;;;;;;;;;;;;;-144.99;92.98;52456.25;5092807;28;19924;-70
2021/10/17 07:44:26;;;;;;;;;;;;;;;-144.99;92.87;52476.63;5091847;28;19988;-71
2021/10/17 07:46:52;;;;;;;;;;;;;;;-144.99;93.30;52454.22;5094185;28;20491;-71
2021/10/17 07:49:18;;;;;;;;;;;;;;;-144.99;92.93;52464.41;5097117;28;19984;-70
2021/10/17 07:51:45;;;;;;;;;;;;;;;-144.99;93.26;52431.78;5092380;28;20005;-70
2021/10/17 07:54:13;;;;;;;;;;;;;;;-144.99;93.50;52464.41;5091921;28;19980;-70
2021/10/17 07:56:39;;;;;;;;;;;;;;;-144.99;93.42;52454.22;5092165;28;19981;-71
2021/10/17 07:59:05;;;;;;;;;;;;;;;-144.99;93.69;52444.03;5092455;28;19972;-70
2021/10/17 08:01:32;;;;;;;;;;;;;;;-144.99;93.99;52423.63;5091897;28;20372;-70
2021/10/17 08:03:58;;;;;;;;;;;;;;;-144.99;93.96;52497.00;5092059;28;20545;-71
2021/10/17 08:06:25;;;;;;;;;;;;;;;-144.99;93.87;52464.41;5092062;28;20399;-71
2021/10/17 08:08:51;;;;;;;;;;;;;;;-144.99;94.34;52411.41;5092364;28;19967;-69
2021/10/17 08:11:19;;;;;;;;;;;;;;;-144.99;94.66;52431.78;5091994;28;19977;-70
2021/10/17 08:13:45;;;;;;;;;;;;;;;-144.99;95.41;52431.78;5091128;28;19980;-69
2021/10/17 08:16:12;;;;;;;;;;;;;;;-144.99;96.15;52439.94;5091001;28;20475;-68
2021/10/17 08:18:38;;;;;;;;;;;;;;;-144.99;96.82;52427.72;5091433;28;20351;-69
2021/10/17 08:21:05;;;;;;;;;;;;;;;-144.99;97.09;52460.31;5091297;28;20420;-69
2021/10/17 08:23:31;;;;;;;;;;;;;;;-144.99;99.20;52472.56;5091425;28;20055;-69
2021/10/17 08:25:57;;;;;;;;;;;;;;;-144.99;99.00;52437.91;5091235;28;19981;-70
2021/10/17 08:28:25;;;;;;;;;;;;;;;-144.99;99.34;52462.34;5091805;28;20003;-69
2021/10/17 08:30:52;;;;;;;;;;;;;;;-144.99;99.71;52444.03;5091950;28;19980;-70
2021/10/17 08:33:18;;;;;;;;;;;;;;;-144.99;100.00;52452.16;5094118;28;20027;-70
2021/10/17 08:35:45;;;;;;;;;;;;;;;-144.99;100.00;52452.16;5092098;28;19987;-70
2021/10/17 08:38:11;;;;;;;;;;;;;;;-144.99;100.00;52421.59;5091881;28;19986;-70
2021/10/17 08:40:39;;;;;;;;;;;;;;;-144.99;100.00;52460.31;5091072;28;20003;-70
2021/10/17 08:43:06;;;;;;;;;;;;;;;-144.99;100.00;52472.56;5091120;28;20091;-69
2021/10/17 08:45:34;;;;;;;;;;;;;;;-144.99;100.00;52415.47;5092094;28;20361;-70
2021/10/17 08:48:02;;;;;;;;;;;;;;;-144.99;100.00;52444.03;5091473;28;19983;-70
2021/10/17 08:50:29;;;;;;;;;;;;;;;-144.99;100.00;52472.56;5091358;28;19988;-70
2021/10/17 08:52:55;;;;;;;;;;;;;;;-144.99;100.00;52437.91;5091650;28;19997;-71
2021/10/17 08:55:22;;;;;;;;;;;;;;;-144.99;100.00;52431.78;5091676;28;20071;-69
2021/10/17 08:57:51;;;;;;;;;;;;;;;-144.99;100.00;52456.25;5092043;28;19980;-70
2021/10/17 09:00:29;;;;;;;;;;;;;;;-144.99;100.00;52427.72;5091414;28;19981;-70
2021/10/17 09:02:58;;;;;;;;;;;;;;;-144.99;100.00;52446.06;5088128;28;20351;-69
2021/10/17 09:05:34;;;;;;;;;;;;;;;-144.99;100.00;52452.16;5090691;28;20459;-70
2021/10/17 09:08:00;;;;;;;;;;;;;;;-144.99;100.00;52474.59;5090267;28;19980;-71
2021/10/17 09:10:27;;;;;;;;;;;;;;;-144.99;100.00;52464.41;5091533;28;19984;-69
2021/10/17 09:12:53;;;;;;;;;;;;;;;-144.99;100.00;52480.72;5090069;28;20004;-70
2021/10/17 09:15:21;;;;;;;;;;;;;;;-144.99;100.00;52439.94;5090344;28;19980;-70
2021/10/17 09:21:01;;;;;;;;;;;;;;;-144.99;100.00;52437.91;5108455;27;19977;-71
2021/10/17 09:23:32;;;;;;;;;;;;;;;-144.99;100.00;52399.19;5108625;28;20003;-71
2021/10/17 09:25:59;;;;;;;;;;;;;;;-144.99;100.00;52423.63;5107789;28;20024;-70
2021/10/17 09:28:27;;;;;;;;;;;;;;;-144.99;100.00;52472.56;5107562;28;19980;-72
2021/10/17 09:30:57;;;;;;;;;;;;;;;-144.99;100.00;52476.63;5107776;28;20002;-70
2021/10/17 09:33:24;;;;;;;;;;;;;;;-144.99;100.00;52446.06;5107717;28;19996;-71
2021/10/17 09:35:51;;;;;;;;;;;;;;;-144.99;100.00;52448.09;5095355;28;19983;-70
2021/10/17 09:38:20;;;;;;;;;;;;;;;-144.99;100.00;52407.31;5087488;28;19980;-72
2021/10/17 09:40:48;;;;;;;;;;;;;;;-144.99;100.00;52407.31;5087261;28;19981;-70
2021/10/17 09:43:22;;;;;;;;;;;;;;;-144.99;100.00;52439.94;5087286;28;19988;-69
2021/10/17 09:45:49;;;;;;;;;;;;;;;-144.99;99.39;52419.56;5087230;28;19981;-71
2021/10/17 09:48:28;;;;;;;;;;;;;;;-144.99;99.68;52456.25;5088025;28;19980;-69
2021/10/17 09:51:00;;;;;;;;;;;;;;;-144.99;100.00;52444.03;5088442;28;19987;-70
2021/10/17 09:53:41;;;;;;;;;;;;;;;-144.99;99.33;52395.09;5087717;28;20005;-70
2021/10/17 09:56:07;;;;;;;;;;;;;;;-144.99;99.24;52380.84;5087045;28;20038;-72
2021/10/17 09:58:34;;;;;;;;;;;;;;;-144.99;99.38;52468.47;5087870;28;19981;-70
2021/10/17 10:01:00;;;;;;;;;;;;;;;-144.99;99.08;52427.72;5084147;28;19984;-71
2021/10/17 10:03:27;;;;;;;;;;;;;;;-144.99;99.08;52419.56;5107858;28;20091;-70
2021/10/17 10:05:54;;;;;;;;;;;;;;;-144.99;99.29;52419.56;5107184;28;19981;-71
2021/10/17 10:08:22;;;;;;;;;;;;;;;-144.99;99.19;52435.88;5107982;28;19976;-72
2021/10/17 10:10:50;;;;;;;;;;;;;;;-144.99;98.84;52419.56;5102052;28;20008;-70
2021/10/17 10:13:18;;;;;;;;;;;;;;;-144.99;98.96;52439.94;5084127;28;19989;-71
2021/10/17 10:15:45;;;;;;;;;;;;;;;-144.99;98.80;52433.81;5090230;28;19977;-71
2021/10/17 10:18:12;;;;;;;;;;;;;;;-144.99;98.73;52427.72;5092586;28;20361;-72
2021/10/17 10:20:40;;;;;;;;;;;;;;;-144.99;98.70;52439.94;5080481;28;20007;-71
2021/10/17 10:23:07;;;;;;;;;;;;;;;-144.99;98.91;52391.03;5107201;28;19996;-70
2021/10/17 10:25:34;;;;;;;;;;;;;;;-144.99;98.47;52444.03;5106822;28;20016;-70
2021/10/17 10:28:02;;;;;;;;;;;;;;;-144.99;98.59;52435.88;5106966;28;19981;-70
2021/10/17 10:30:31;;;;;;;;;;;;;;;-144.99;98.41;52431.78;5102095;28;19981;-70
2021/10/17 10:33:15;;;;;;;;;;;;;;;-144.99;98.25;52468.47;5093319;28;19997;-69
2021/10/17 10:35:56;;;;;;;;;;;;;;;-144.99;97.88;52419.56;5082363;28;19977;-68
2021/10/17 10:38:50;;;;;;;;;;;;;;;-144.99;97.87;52388.97;5064778;28;19996;-68
2021/10/17 10:41:17;;;;;;;;;;;;;;;-144.99;97.36;52431.78;5072358;28;19984;-70
2021/10/17 10:43:44;;;;;;;;;;;;;;;-144.99;97.44;52448.09;5071156;28;19980;-69
2021/10/17 10:46:11;;;;;;;;;;;;;;;-144.99;97.09;52452.16;5073490;28;19972;-69
2021/10/17 10:48:45;;;;;;;;;;;;;;;-144.99;96.92;52419.56;5072922;28;20502;-70
2021/10/17 10:51:12;;;;;;;;;;;;;;;-144.99;96.26;52439.94;5071858;28;20322;-68
2021/10/17 10:53:46;;;;;;;;;;;;;;;-144.99;95.91;52419.56;5072369;28;19989;-70
2021/10/17 10:56:39;;;;;;;;;;;;;;;-144.99;95.95;52382.88;5087214;28;20402;-71
2021/10/17 10:59:07;;;;;;;;;;;;;;;-144.99;95.28;52407.31;5092962;28;20091;-71
2021/10/17 11:02:07;;;;;;;;;;;;;;;-144.99;95.05;52427.72;5083173;28;20000;-71
2021/10/17 11:05:01;;;;;;;;;;;;;;;-144.99;94.40;52399.19;5033449;28;19984;-71
2021/10/17 11:07:45;;;;;;;;;;;;;;;-144.99;93.72;52423.63;5090949;28;19986;-70
2021/10/17 11:10:46;;;;;;;;;;;;;;;-144.99;93.57;52435.88;5082656;28;20054;-70
2021/10/17 11:13:34;;;;;;;;;;;;;;;-144.99;93.34;52456.25;5057540;28;19989;-70
2021/10/17 11:16:03;;;;;;;;;;;;;;;-144.99;93.04;52415.47;5072665;28;19981;-70
2021/10/17 11:18:31;;;;;;;;;;;;;;;-144.99;93.33;52419.56;5056533;22;20001;-70
2021/10/17 11:20:58;;;;;;;;;;;;;;;-144.99;93.11;52407.31;5029219;28;19993;-71
2021/10/17 11:23:25;;;;;;;;;;;;;;;-144.99;93.19;52407.31;5030975;28;19984;-71
2021/10/17 11:25:53;;;;;;;;;;;;;;;-144.99;93.04;52427.72;5031154;28;20195;-70
2021/10/17 11:28:19;;;;;;;;;;;;;;;-144.99;92.86;52429.75;5021407;28;19978;-70
2021/10/17 11:30:45;;;;;;;;;;;;;;;-144.99;92.65;52415.47;5011220;28;20069;-71
2021/10/17 11:33:18;;;;;;;;;;;;;;;-144.99;92.98;52403.25;5010792;28;19997;-70
2021/10/17 11:35:45;;;;;;;;;;;;;;;-144.99;93.00;52407.31;5013590;28;19978;-70
2021/10/17 11:38:11;;;;;;;;;;;;;;;-144.99;92.77;52435.88;5011298;28;19981;-70
2021/10/17 11:40:38;;;;;;;;;;;;;;;-144.99;92.76;52415.47;5011283;28;20490;-70
2021/10/17 11:43:06;;;;;;;;;;;;;;;-144.99;92.31;52427.72;5008292;28;19993;-70
2021/10/17 11:45:33;;;;;;;;;;;;;;;-144.99;92.16;52423.63;5019655;28;20029;-70
2021/10/17 11:48:01;;;;;;;;;;;;;;;-144.99;92.53;52427.72;5017599;28;19985;-70
2021/10/17 11:50:30;;;;;;;;;;;;;;;-144.99;92.36;52431.78;5011047;28;19986;-70
2021/10/17 11:52:57;;;;;;;;;;;;;;;-144.99;92.07;52382.88;5024786;28;19997;-70
2021/10/17 11:55:28;;;;;;;;;;;;;;;-144.99;91.94;52391.03;5030585;28;20446;-70
2021/10/17 11:57:54;;;;;;;;;;;;;;;-144.99;92.55;52427.72;5030509;28;19981;-70
2021/10/17 12:00:24;;;;;;;;;;;;;;;-144.99;92.52;52403.25;5030774;28;20066;-70
2021/10/17 12:02:51;;;;;;;;;;;;;;;-144.99;91.91;52409.38;5010663;28;20481;-70
2021/10/17 12:05:18;;;;;;;;;;;;;;;-144.99;92.08;52419.56;5010472;28;19988;-70
2021/10/17 12:07:46;;;;;;;;;;;;;;;-144.99;91.75;52421.59;5010137;28;20092;-70
2021/10/17 12:10:13;;;;;;;;;;;;;;;-144.99;92.00;52462.34;5010187;28;20004;-70
2021/10/17 12:12:39;;;;;;;;;;;;;;;-144.99;91.39;52444.03;5009937;28;19991;-70
2021/10/17 12:15:07;;;;;;;;;;;;;;;-144.99;91.14;52435.88;5023153;28;19974;-70
2021/10/17 12:17:34;;;;;;;;;;;;;;;-144.99;91.09;52403.25;5020214;28;19982;-70
2021/10/17 12:20:01;;;;;;;;;;;;;;;-144.99;90.97;52423.63;5010906;28;19993;-70
2021/10/17 12:22:27;;;;;;;;;;;;;;;-144.99;91.21;52419.56;5010340;28;19998;-70
2021/10/17 12:24:58;;;;;;;;;;;;;;;-144.99;90.60;52415.47;5010756;28;19992;-70
2021/10/17 12:27:30;;;;;;;;;;;;;;;-144.99;91.17;52429.75;5009940;28;20039;-70
2021/10/17 12:30:03;;;;;;;;;;;;;;;-144.99;90.93;52413.44;5010647;28;20439;-71
2021/10/17 12:32:40;;;;;;;;;;;;;;;-144.99;91.09;52427.72;5010475;28;20008;-70